Time;durP1;ratioP1;P1;durP2;ratioP2;P2;SDS_P1;SDS_P2;PMS_P1;PMS_P2;Temp;Humidity;BMP_temperature;BMP_pressure;BME280_temperature;BME280_humidity;BME280_pressure;Samples;Min_cycle;Max_cycle;Signal;HPM_P1;HPM_P2
2022/01/14 00:02:13;;;;;;;;;;;0.30;99.90;;;;;;5055576;28;19913;-41
2022/01/14 00:04:39;;;;;;;;;;;0.30;99.90;;;;;;5055350;28;19978;-41
2022/01/14 00:07:05;;;;;;;;;;;0.40;99.90;;;;;;5055444;28;19921;-41
2022/01/14 00:09:32;;;;;;;;;;;0.30;99.90;;;;;;5055110;28;20317;-41
2022/01/14 00:11:59;;;;;;;;;;;0.30;99.90;;;;;;5054317;28;20394;-41
2022/01/14 00:14:41;;;;;;;;;;;0.20;99.90;;;;;;5055088;28;19916;-41
2022/01/14 00:17:08;;;;;;;;;;;0.00;99.90;;;;;;5055398;28;20003;-42
2022/01/14 00:19:34;;;;;;;;;;;-0.20;99.90;;;;;;5055177;28;19917;-40
2022/01/14 00:22:05;;;;;;;;;;;-0.40;99.90;;;;;;5054893;28;19913;-40
2022/01/14 00:31:38;;;;;;;;;;;-0.70;99.90;;;;;;5055007;28;19916;-41
2022/01/14 00:32:57;;;;;;;;;;;-0.80;99.90;;;;;;5055017;28;19966;-41
2022/01/14 00:35:22;;;;;;;;;;;-0.80;99.90;;;;;;5037149;28;19909;-41
2022/01/14 00:37:48;;;;;;;;;;;-0.70;99.90;;;;;;5054680;28;19996;-41
2022/01/14 00:40:13;;;;;;;;;;;-0.70;99.90;;;;;;5054978;28;19987;-41
2022/01/14 00:42:39;;;;;;;;;;;-0.60;99.90;;;;;;5054605;28;19909;-41
2022/01/14 00:45:07;;;;;;;;;;;-0.60;99.90;;;;;;5054849;28;19909;-41
2022/01/14 00:47:37;;;;;;;;;;;-0.40;99.90;;;;;;5054394;28;19944;-42
2022/01/14 00:50:11;;;;;;;;;;;-0.30;99.90;;;;;;5054489;28;19912;-42
2022/01/14 00:52:37;;;;;;;;;;;-0.30;99.90;;;;;;5054675;28;19909;-42
2022/01/14 00:55:03;;;;;;;;;;;-0.20;99.90;;;;;;5054638;28;20363;-43
2022/01/14 00:59:14;;;;;;;;;;;-0.20;99.90;;;;;;5054613;28;19948;-41
2022/01/14 01:00:16;;;;;;;;;;;-0.20;99.90;;;;;;5054280;28;19920;-40
2022/01/14 01:02:41;;;;;;;;;;;-0.20;99.90;;;;;;5054177;28;19909;-42
2022/01/14 01:05:07;;;;;;;;;;;-0.40;99.90;;;;;;5054230;28;19913;-41
2022/01/14 01:07:33;;;;;;;;;;;-0.50;99.90;;;;;;5054395;28;19987;-41
2022/01/14 01:09:58;;;;;;;;;;;-0.40;99.90;;;;;;5054092;28;20397;-41
2022/01/14 01:13:02;;;;;;;;;;;-0.30;99.90;;;;;;5054354;28;19920;-40
2022/01/14 01:15:17;;;;;;;;;;;-0.30;99.90;;;;;;5052143;28;20358;-40
2022/01/14 01:17:43;;;;;;;;;;;-0.40;99.90;;;;;;5053942;28;19996;-41
2022/01/14 01:20:12;;;;;;;;;;;-0.40;99.90;;;;;;5054219;28;19963;-41
2022/01/14 01:22:38;;;;;;;;;;;-0.40;99.90;;;;;;5053868;28;19927;-41
2022/01/14 01:25:04;;;;;;;;;;;-0.60;99.90;;;;;;5053872;28;20007;-41
2022/01/14 01:27:36;;;;;;;;;;;-0.40;99.90;;;;;;5053941;28;19913;-40
2022/01/14 01:30:13;;;;;;;;;;;-0.40;99.90;;;;;;5054013;28;20328;-40
2022/01/14 01:32:39;;;;;;;;;;;-0.30;99.90;;;;;;5053892;28;20000;-40
2022/01/14 01:35:05;;;;;;;;;;;-0.30;99.90;;;;;;5054386;28;19944;-41
2022/01/14 01:37:30;;;;;;;;;;;-0.30;99.90;;;;;;5054026;28;20374;-42
2022/01/14 01:39:56;;;;;;;;;;;-0.30;99.90;;;;;;5053972;28;19915;-41
2022/01/14 01:42:27;;;;;;;;;;;-0.20;99.90;;;;;;5053637;28;19909;-41
2022/01/14 01:44:52;;;;;;;;;;;-0.20;99.90;;;;;;5053980;28;20302;-40
2022/01/14 01:47:20;;;;;;;;;;;-0.20;99.90;;;;;;5053844;28;19912;-41
2022/01/14 01:49:46;;;;;;;;;;;-0.40;99.90;;;;;;5054270;28;20007;-41
2022/01/14 01:52:11;;;;;;;;;;;-0.40;99.90;;;;;;5053963;28;19913;-41
2022/01/14 01:54:37;;;;;;;;;;;-0.40;99.90;;;;;;5054178;28;19916;-40
2022/01/14 01:57:03;;;;;;;;;;;-0.50;99.90;;;;;;5053902;28;19919;-41
2022/01/14 01:59:29;;;;;;;;;;;-0.50;99.90;;;;;;5053862;28;20352;-41
2022/01/14 02:01:58;;;;;;;;;;;-0.60;99.90;;;;;;5053642;28;19917;-41
2022/01/14 02:04:24;;;;;;;;;;;-0.70;99.90;;;;;;5053697;28;19940;-41
2022/01/14 02:06:50;;;;;;;;;;;-0.80;99.90;;;;;;5053598;28;19956;-42
2022/01/14 02:09:16;;;;;;;;;;;-1.00;99.90;;;;;;5053322;28;19913;-41
2022/01/14 02:11:41;;;;;;;;;;;-1.00;99.90;;;;;;5053325;28;19962;-41
2022/01/14 02:14:15;;;;;;;;;;;-0.90;99.90;;;;;;5062547;28;19913;-41
2022/01/14 02:19:29;;;;;;;;;;;-0.60;99.90;;;;;;5070536;28;19979;-41
2022/01/14 02:22:14;;;;;;;;;;;-0.60;99.90;;;;;;5053350;28;19909;-41
2022/01/14 02:27:07;;;;;;;;;;;-0.70;99.90;;;;;;5053614;28;20325;-41
2022/01/14 02:29:33;;;;;;;;;;;-0.80;99.90;;;;;;5061553;28;19962;-41
2022/01/14 02:31:58;;;;;;;;;;;-0.70;99.90;;;;;;5074800;28;19912;-41
2022/01/14 02:34:24;;;;;;;;;;;-0.70;99.90;;;;;;5093520;28;19935;-41
2022/01/14 02:36:50;;;;;;;;;;;-0.80;99.90;;;;;;5078833;28;19974;-41
2022/01/14 02:39:16;;;;;;;;;;;-0.70;99.90;;;;;;5077569;28;20266;-41
2022/01/14 02:41:42;;;;;;;;;;;-0.70;99.90;;;;;;5076817;28;19908;-41
2022/01/14 02:44:10;;;;;;;;;;;-0.60;99.90;;;;;;5076864;28;19908;-41
2022/01/14 02:46:43;;;;;;;;;;;-0.80;99.90;;;;;;5076656;28;19913;-42
2022/01/14 02:49:08;;;;;;;;;;;-0.70;99.90;;;;;;5058363;28;20329;-41
2022/01/14 02:51:34;;;;;;;;;;;-0.70;99.90;;;;;;5057238;28;20011;-41
2022/01/14 02:54:12;;;;;;;;;;;-0.70;99.90;;;;;;5056978;28;19909;-41
2022/01/14 02:56:41;;;;;;;;;;;-0.80;99.90;;;;;;5061592;28;20387;-41
2022/01/14 02:59:07;;;;;;;;;;;-0.80;99.90;;;;;;5076778;28;19944;-41
2022/01/14 03:01:33;;;;;;;;;;;-0.80;99.90;;;;;;5068511;28;19909;-42
2022/01/14 03:04:01;;;;;;;;;;;-0.80;99.90;;;;;;5056522;28;19909;-41
2022/01/14 03:06:27;;;;;;;;;;;-0.90;99.90;;;;;;5057573;28;19913;-41
2022/01/14 03:08:53;;;;;;;;;;;-1.10;99.90;;;;;;5076535;28;19922;-41
2022/01/14 03:11:34;;;;;;;;;;;-1.10;99.90;;;;;;5072221;28;19995;-41
2022/01/14 03:13:59;;;;;;;;;;;-1.00;99.90;;;;;;5063375;28;19920;-42
2022/01/14 03:16:25;;;;;;;;;;;-0.90;99.90;;;;;;5056539;28;20360;-42
2022/01/14 03:18:53;;;;;;;;;;;-0.90;99.90;;;;;;5076176;28;19908;-41
2022/01/14 03:21:27;;;;;;;;;;;-0.90;99.90;;;;;;5076042;28;20007;-41
2022/01/14 03:24:04;;;;;;;;;;;-0.90;99.90;;;;;;5076426;28;20367;-41
2022/01/14 03:26:29;;;;;;;;;;;-0.80;99.90;;;;;;5076101;28;19916;-41
2022/01/14 03:28:55;;;;;;;;;;;-0.70;99.90;;;;;;5073984;28;19995;-41
2022/01/14 03:31:20;;;;;;;;;;;-0.70;99.90;;;;;;5056017;28;19909;-41
2022/01/14 03:33:46;;;;;;;;;;;-0.70;99.90;;;;;;5056308;28;20359;-41
2022/01/14 03:36:12;;;;;;;;;;;-0.70;99.90;;;;;;5055843;28;19916;-42
2022/01/14 03:38:37;;;;;;;;;;;-0.70;99.90;;;;;;5056176;28;19915;-40
2022/01/14 03:41:03;;;;;;;;;;;-0.60;99.90;;;;;;5055890;28;19999;-41
2022/01/14 03:43:29;;;;;;;;;;;-0.60;99.90;;;;;;5056072;28;19913;-41
2022/01/14 03:45:55;;;;;;;;;;;-0.60;99.90;;;;;;5055647;28;19920;-41
2022/01/14 03:48:20;;;;;;;;;;;-0.60;99.90;;;;;;5055803;28;19912;-41
2022/01/14 03:50:46;;;;;;;;;;;-0.60;99.90;;;;;;5059630;28;19920;-41
2022/01/14 03:53:12;;;;;;;;;;;-0.70;99.90;;;;;;5074243;28;20297;-41
2022/01/14 03:55:42;;;;;;;;;;;-0.70;99.90;;;;;;5071277;28;19948;-41
2022/01/14 03:58:08;;;;;;;;;;;-0.70;99.90;;;;;;5060808;28;19916;-42
2022/01/14 04:00:34;;;;;;;;;;;-0.80;99.90;;;;;;5057667;28;19928;-41
2022/01/14 04:02:59;;;;;;;;;;;-0.80;99.90;;;;;;5054914;28;19909;-40
2022/01/14 04:05:25;;;;;;;;;;;-0.80;99.90;;;;;;5038869;28;19962;-41
2022/01/14 04:07:51;;;;;;;;;;;-0.80;99.90;;;;;;5066330;28;19916;-41
2022/01/14 04:10:18;;;;;;;;;;;-0.80;99.90;;;;;;5056111;28;19970;-41
2022/01/14 04:17:54;;;;;;;;;;;-0.70;99.90;;;;;;5075481;28;19920;-42
2022/01/14 04:20:20;;;;;;;;;;;-0.70;99.90;;;;;;5074753;28;19908;-42
2022/01/14 04:22:48;;;;;;;;;;;-0.90;99.90;;;;;;5074875;28;20504;-42
2022/01/14 04:25:13;;;;;;;;;;;-0.80;99.90;;;;;;5074487;28;19920;-42
2022/01/14 04:27:39;;;;;;;;;;;-0.80;99.90;;;;;;5074625;28;19916;-42
2022/01/14 04:30:05;;;;;;;;;;;-0.70;99.90;;;;;;5074711;28;19916;-41
2022/01/14 04:32:30;;;;;;;;;;;-0.60;99.90;;;;;;5074189;28;19924;-41
2022/01/14 04:34:55;;;;;;;;;;;-0.60;99.90;;;;;;5056716;28;19919;-42
2022/01/14 04:37:22;;;;;;;;;;;-0.70;99.90;;;;;;5074320;28;19920;-41
2022/01/14 04:39:47;;;;;;;;;;;-0.70;99.90;;;;;;5074057;28;19912;-41
2022/01/14 04:42:13;;;;;;;;;;;-0.80;99.90;;;;;;5074334;28;19913;-41
2022/01/14 04:44:38;;;;;;;;;;;-0.80;99.90;;;;;;5074439;28;20424;-41
2022/01/14 04:47:15;;;;;;;;;;;-0.70;99.90;;;;;;5074865;28;19966;-41
2022/01/14 04:49:41;;;;;;;;;;;-0.70;99.90;;;;;;5054300;28;19913;-41
2022/01/14 04:52:07;;;;;;;;;;;-0.60;99.90;;;;;;5054289;28;19916;-42
2022/01/14 04:54:34;;;;;;;;;;;-0.70;99.90;;;;;;5054313;28;19916;-41
2022/01/14 04:56:59;;;;;;;;;;;-0.70;99.90;;;;;;5054393;28;19912;-41
2022/01/14 04:59:25;;;;;;;;;;;-0.70;99.90;;;;;;5053951;28;19996;-41
2022/01/14 05:01:50;;;;;;;;;;;-0.80;99.90;;;;;;5054454;28;20074;-41
2022/01/14 05:04:16;;;;;;;;;;;-0.70;99.90;;;;;;5054204;28;20418;-42
2022/01/14 05:06:45;;;;;;;;;;;-0.70;99.90;;;;;;5053915;28;19912;-41
2022/01/14 05:09:21;;;;;;;;;;;-0.60;99.90;;;;;;5054288;28;19919;-41
2022/01/14 05:11:53;;;;;;;;;;;-0.60;99.90;;;;;;5054249;28;19909;-41
2022/01/14 05:14:19;;;;;;;;;;;-0.60;99.90;;;;;;5054134;28;19916;-41
2022/01/14 05:16:45;;;;;;;;;;;-0.60;99.90;;;;;;5054446;28;19966;-41
2022/01/14 05:19:10;;;;;;;;;;;-0.70;99.90;;;;;;5054018;28;20370;-41
2022/01/14 05:21:36;;;;;;;;;;;-0.60;99.90;;;;;;5053896;28;19940;-41
2022/01/14 05:24:02;;;;;;;;;;;-0.60;99.90;;;;;;5054036;28;19920;-42
2022/01/14 05:26:27;;;;;;;;;;;-0.60;99.90;;;;;;5053395;28;19970;-42
2022/01/14 05:28:53;;;;;;;;;;;-0.50;99.90;;;;;;5053983;28;19912;-41
2022/01/14 05:31:18;;;;;;;;;;;-0.60;99.90;;;;;;5058229;28;19913;-42
2022/01/14 05:33:46;;;;;;;;;;;-0.60;99.90;;;;;;5053595;28;19912;-41
2022/01/14 05:36:12;;;;;;;;;;;-0.60;99.90;;;;;;5053506;28;20382;-41
2022/01/14 05:38:37;;;;;;;;;;;-0.50;99.90;;;;;;5053359;28;20000;-41
2022/01/14 05:41:03;;;;;;;;;;;-0.40;99.90;;;;;;5067250;28;19913;-42
2022/01/14 05:43:28;;;;;;;;;;;-0.50;99.90;;;;;;5072739;28;19957;-40
2022/01/14 05:45:54;;;;;;;;;;;-0.50;99.90;;;;;;5068671;28;19916;-40
2022/01/14 05:48:19;;;;;;;;;;;-0.40;99.90;;;;;;5072208;28;19920;-41
2022/01/14 05:50:45;;;;;;;;;;;-0.50;99.90;;;;;;5072551;28;19920;-41
2022/01/14 05:53:10;;;;;;;;;;;-0.60;99.90;;;;;;5062435;28;19913;-41
2022/01/14 05:55:36;;;;;;;;;;;-0.40;99.90;;;;;;5069242;28;19916;-41
2022/01/14 05:58:02;;;;;;;;;;;-0.40;99.90;;;;;;5071868;28;19919;-41
2022/01/14 06:00:27;;;;;;;;;;;-0.60;99.90;;;;;;5073378;28;19909;-42
2022/01/14 06:02:53;;;;;;;;;;;-0.70;99.90;;;;;;5073167;28;20282;-42
2022/01/14 06:05:19;;;;;;;;;;;-0.90;99.90;;;;;;5073385;28;20338;-40
2022/01/14 06:07:44;;;;;;;;;;;-1.00;99.90;;;;;;5072967;28;19916;-41
2022/01/14 06:10:10;;;;;;;;;;;-1.10;99.90;;;;;;5073092;28;19919;-42
2022/01/14 06:12:36;;;;;;;;;;;-1.30;99.90;;;;;;5070191;28;19973;-43
2022/01/14 06:15:01;;;;;;;;;;;-1.30;99.90;;;;;;5072846;28;19909;-42
2022/01/14 06:17:27;;;;;;;;;;;-1.40;99.90;;;;;;5076133;28;19912;-43
2022/01/14 06:19:52;;;;;;;;;;;-1.40;99.90;;;;;;5075704;28;19927;-40
2022/01/14 06:22:18;;;;;;;;;;;-1.50;99.90;;;;;;5076694;28;19935;-41
2022/01/14 06:24:43;;;;;;;;;;;-1.70;99.90;;;;;;5076914;28;20309;-40
2022/01/14 06:27:09;;;;;;;;;;;-1.50;99.90;;;;;;5076248;28;19912;-42
2022/01/14 06:29:34;;;;;;;;;;;-1.40;99.90;;;;;;5076660;28;19966;-41
2022/01/14 06:32:00;;;;;;;;;;;-1.30;99.90;;;;;;5076922;28;19909;-41
2022/01/14 06:34:25;;;;;;;;;;;-1.20;99.90;;;;;;5076337;28;19908;-41
2022/01/14 06:36:51;;;;;;;;;;;-1.10;99.90;;;;;;5058514;28;19909;-41
2022/01/14 06:39:16;;;;;;;;;;;-1.00;99.90;;;;;;5076178;28;20258;-41
2022/01/14 06:41:42;;;;;;;;;;;-0.90;99.90;;;;;;5076171;28;19909;-41
2022/01/14 06:44:08;;;;;;;;;;;-0.90;99.90;;;;;;5076219;28;19956;-41
2022/01/14 06:46:33;;;;;;;;;;;-0.80;99.90;;;;;;5075842;28;19935;-41
2022/01/14 06:48:59;;;;;;;;;;;-0.70;99.90;;;;;;5076123;28;19920;-41
2022/01/14 06:51:24;;;;;;;;;;;-0.80;99.90;;;;;;5076088;28;19966;-41
2022/01/14 06:53:50;;;;;;;;;;;-0.90;99.90;;;;;;5076181;28;19909;-41
2022/01/14 06:56:16;;;;;;;;;;;-0.80;99.90;;;;;;5076115;28;19908;-41
2022/01/14 06:58:42;;;;;;;;;;;-0.90;99.90;;;;;;5076363;28;19999;-41
2022/01/14 07:01:07;;;;;;;;;;;-0.70;99.90;;;;;;5076169;28;19908;-41
2022/01/14 07:03:33;;;;;;;;;;;-0.80;99.90;;;;;;5076071;28;20282;-42
2022/01/14 07:05:59;;;;;;;;;;;-0.70;99.90;;;;;;5076211;28;20303;-41
2022/01/14 07:08:25;;;;;;;;;;;-0.60;99.90;;;;;;5075850;28;19999;-40
2022/01/14 07:10:50;;;;;;;;;;;-0.60;99.90;;;;;;5076200;28;19915;-40
2022/01/14 07:13:16;;;;;;;;;;;-0.50;99.90;;;;;;5076071;28;19909;-41
2022/01/14 07:15:41;;;;;;;;;;;-0.50;99.90;;;;;;5075801;28;20281;-42
2022/01/14 07:18:09;;;;;;;;;;;-0.50;99.90;;;;;;5075978;28;19916;-41
2022/01/14 07:20:35;;;;;;;;;;;-0.60;99.90;;;;;;5075927;28;19958;-42
2022/01/14 07:23:00;;;;;;;;;;;-0.50;99.90;;;;;;5074882;28;20392;-40
2022/01/14 07:25:26;;;;;;;;;;;-0.50;99.90;;;;;;5075552;28;19915;-41
2022/01/14 07:27:51;;;;;;;;;;;-0.40;99.90;;;;;;5075412;28;20411;-42
2022/01/14 07:30:17;;;;;;;;;;;-0.50;99.90;;;;;;5075613;28;19912;-42
2022/01/14 07:32:43;;;;;;;;;;;-0.50;99.90;;;;;;5075391;28;19908;-41
2022/01/14 07:35:09;;;;;;;;;;;-0.50;99.90;;;;;;5075586;28;19908;-41
2022/01/14 07:37:35;;;;;;;;;;;-0.40;99.90;;;;;;5075393;28;20236;-41
2022/01/14 07:40:00;;;;;;;;;;;-0.40;99.90;;;;;;5075073;28;20305;-42
2022/01/14 07:42:26;;;;;;;;;;;-0.30;99.90;;;;;;5075229;28;19909;-40
2022/01/14 07:44:51;;;;;;;;;;;-0.20;99.90;;;;;;5075155;28;19908;-41
2022/01/14 07:47:17;;;;;;;;;;;0.00;99.90;;;;;;5075086;28;19927;-41
2022/01/14 07:49:42;;;;;;;;;;;0.00;99.90;;;;;;5075163;28;19917;-41
2022/01/14 07:52:08;;;;;;;;;;;0.10;99.90;;;;;;5075229;28;19924;-41
2022/01/14 07:54:33;;;;;;;;;;;0.20;99.90;;;;;;5074730;28;19908;-42
2022/01/14 07:57:00;;;;;;;;;;;0.20;99.90;;;;;;5074821;28;19909;-42
2022/01/14 07:59:27;;;;;;;;;;;0.40;99.90;;;;;;5074790;28;19915;-41
2022/01/14 08:01:57;;;;;;;;;;;0.40;99.90;;;;;;5075070;28;19908;-42
2022/01/14 08:04:23;;;;;;;;;;;0.50;99.90;;;;;;5057065;28;19995;-41
2022/01/14 08:06:51;;;;;;;;;;;0.60;99.90;;;;;;5074803;28;19970;-41
2022/01/14 08:09:17;;;;;;;;;;;0.70;99.90;;;;;;5074554;28;19912;-42
2022/01/14 08:11:44;;;;;;;;;;;0.90;99.90;;;;;;5074967;28;19909;-41
2022/01/14 08:14:09;;;;;;;;;;;1.00;99.90;;;;;;5056949;28;20383;-42
2022/01/14 08:16:35;;;;;;;;;;;1.10;99.90;;;;;;5074406;28;19952;-41
2022/01/14 08:19:00;;;;;;;;;;;1.30;99.90;;;;;;5074504;28;19928;-42
2022/01/14 08:21:26;;;;;;;;;;;1.30;99.90;;;;;;5074459;28;19920;-42
2022/01/14 08:23:51;;;;;;;;;;;1.40;99.90;;;;;;5074406;28;19928;-41
2022/01/14 08:26:17;;;;;;;;;;;1.50;99.90;;;;;;5073645;28;20003;-42
2022/01/14 08:28:43;;;;;;;;;;;1.30;99.90;;;;;;5073918;28;19912;-41
2022/01/14 08:31:08;;;;;;;;;;;1.50;99.90;;;;;;5074685;28;20005;-41
2022/01/14 08:33:34;;;;;;;;;;;1.30;99.90;;;;;;5073297;28;19912;-41
2022/01/14 08:36:00;;;;;;;;;;;1.40;99.90;;;;;;5074211;28;19909;-42
2022/01/14 08:38:25;;;;;;;;;;;1.40;99.90;;;;;;5074233;28;19915;-41
2022/01/14 08:40:51;;;;;;;;;;;1.60;99.90;;;;;;5073876;28;19908;-41
2022/01/14 08:43:16;;;;;;;;;;;1.70;99.90;;;;;;5074425;28;20350;-41
2022/01/14 08:45:42;;;;;;;;;;;1.60;99.90;;;;;;5074197;28;19970;-42
2022/01/14 08:48:08;;;;;;;;;;;1.70;99.90;;;;;;5074149;28;19912;-41
2022/01/14 08:50:36;;;;;;;;;;;1.90;99.90;;;;;;5073992;28;20441;-42
2022/01/14 08:53:03;;;;;;;;;;;2.00;99.90;;;;;;5073550;28;20370;-42
2022/01/14 08:55:28;;;;;;;;;;;2.30;99.90;;;;;;5073230;28;20308;-41
2022/01/14 08:57:54;;;;;;;;;;;2.40;99.90;;;;;;5073727;28;19912;-41
2022/01/14 09:00:20;;;;;;;;;;;2.40;99.90;;;;;;5073335;28;19955;-41
2022/01/14 09:02:45;;;;;;;;;;;2.60;99.90;;;;;;5073613;28;19908;-42
2022/01/14 09:05:11;;;;;;;;;;;2.70;99.90;;;;;;5073706;28;19982;-42
2022/01/14 09:07:37;;;;;;;;;;;2.80;99.90;;;;;;5073330;28;19917;-41
2022/01/14 09:10:04;;;;;;;;;;;2.90;99.90;;;;;;5073559;28;20355;-41
2022/01/14 09:12:29;;;;;;;;;;;2.90;99.90;;;;;;5073559;28;19934;-41
2022/01/14 09:14:55;;;;;;;;;;;3.10;99.90;;;;;;5073446;28;19991;-41
2022/01/14 09:17:21;;;;;;;;;;;3.40;99.90;;;;;;5073524;28;20377;-41
2022/01/14 09:19:46;;;;;;;;;;;3.60;99.90;;;;;;5073545;28;19909;-41
2022/01/14 09:22:17;;;;;;;;;;;3.60;99.90;;;;;;5073149;28;20334;-42
2022/01/14 09:24:43;;;;;;;;;;;3.70;99.90;;;;;;5073060;28;19912;-43
2022/01/14 09:27:09;;;;;;;;;;;3.70;99.90;;;;;;5073162;28;20282;-41
2022/01/14 09:29:35;;;;;;;;;;;3.90;99.90;;;;;;5073427;28;19916;-41
2022/01/14 09:32:00;;;;;;;;;;;3.90;99.90;;;;;;5055694;28;19974;-42
2022/01/14 09:34:26;;;;;;;;;;;4.10;99.90;;;;;;5073389;28;19947;-41
2022/01/14 09:36:51;;;;;;;;;;;4.20;99.90;;;;;;5073486;28;19915;-40
2022/01/14 09:39:17;;;;;;;;;;;3.90;99.90;;;;;;5073391;28;20387;-41
2022/01/14 09:41:43;;;;;;;;;;;3.90;99.90;;;;;;5073164;28;19954;-42
2022/01/14 09:44:08;;;;;;;;;;;4.10;99.90;;;;;;5072968;28;20390;-41
2022/01/14 09:46:34;;;;;;;;;;;4.10;99.90;;;;;;5073070;28;20308;-41
2022/01/14 09:49:00;;;;;;;;;;;4.00;99.90;;;;;;5073094;28;19998;-42
2022/01/14 09:51:25;;;;;;;;;;;3.90;99.90;;;;;;5073019;28;19909;-42
2022/01/14 09:53:51;;;;;;;;;;;4.00;99.90;;;;;;5073042;28;19916;-41
2022/01/14 09:56:18;;;;;;;;;;;4.20;99.90;;;;;;5072652;28;20039;-41
2022/01/14 09:58:48;;;;;;;;;;;4.30;99.90;;;;;;5073420;28;19944;-42
2022/01/14 10:01:18;;;;;;;;;;;4.60;99.90;;;;;;5073257;28;20422;-42
2022/01/14 10:03:50;;;;;;;;;;;4.60;99.90;;;;;;5072849;28;20007;-42
2022/01/14 10:06:45;;;;;;;;;;;4.60;99.90;;;;;;5072694;28;19908;-40
2022/01/14 10:09:17;;;;;;;;;;;4.60;99.90;;;;;;5055218;28;19912;-41
2022/01/14 10:11:43;;;;;;;;;;;4.60;99.90;;;;;;5073076;28;19909;-40
2022/01/14 10:14:10;;;;;;;;;;;4.70;99.90;;;;;;5073293;28;19909;-42
2022/01/14 10:16:40;;;;;;;;;;;4.80;99.90;;;;;;5072868;28;19912;-42
2022/01/14 10:19:16;;;;;;;;;;;5.10;99.90;;;;;;5072574;28;20409;-41
2022/01/14 10:21:41;;;;;;;;;;;5.10;99.90;;;;;;5072461;28;20244;-42
2022/01/14 10:24:09;;;;;;;;;;;4.90;99.90;;;;;;5072925;28;19927;-41
2022/01/14 10:26:50;;;;;;;;;;;4.60;99.90;;;;;;5072527;28;19917;-41
2022/01/14 10:29:25;;;;;;;;;;;4.70;99.90;;;;;;5072449;28;19935;-41
2022/01/14 10:31:50;;;;;;;;;;;4.80;99.90;;;;;;5073418;28;19909;-42
2022/01/14 10:34:16;;;;;;;;;;;5.10;99.90;;;;;;5073034;28;20262;-41
2022/01/14 10:36:43;;;;;;;;;;;4.90;99.90;;;;;;5072747;28;19919;-42
2022/01/14 10:39:27;;;;;;;;;;;5.00;99.90;;;;;;5072752;28;19909;-42
2022/01/14 10:41:57;;;;;;;;;;;5.30;99.90;;;;;;5072817;28;19909;-43
2022/01/14 10:44:30;;;;;;;;;;;5.40;99.90;;;;;;5072197;28;19995;-41
2022/01/14 10:47:14;;;;;;;;;;;5.70;99.90;;;;;;5072453;28;19913;-41
2022/01/14 10:49:40;;;;;;;;;;;6.00;99.90;;;;;;5072598;28;20335;-40
2022/01/14 10:52:09;;;;;;;;;;;6.20;99.90;;;;;;5072915;28;19952;-42
2022/01/14 10:54:42;;;;;;;;;;;5.90;99.90;;;;;;5072667;28;19912;-41
2022/01/14 10:57:15;;;;;;;;;;;5.70;99.90;;;;;;5056000;28;19915;-41
2022/01/14 10:59:41;;;;;;;;;;;5.80;99.90;;;;;;5075524;28;19915;-41
2022/01/14 11:02:27;;;;;;;;;;;5.80;99.90;;;;;;5075732;28;19908;-43
2022/01/14 11:05:01;;;;;;;;;;;5.90;99.90;;;;;;5061141;28;20453;-42
2022/01/14 11:07:27;;;;;;;;;;;5.80;99.90;;;;;;5075732;28;19913;-42
2022/01/14 11:09:52;;;;;;;;;;;6.00;99.90;;;;;;5075955;28;20335;-42
2022/01/14 11:12:18;;;;;;;;;;;6.10;99.90;;;;;;5075952;28;19995;-42
2022/01/14 11:14:44;;;;;;;;;;;6.00;99.90;;;;;;5075867;28;20011;-42
2022/01/14 11:17:10;;;;;;;;;;;6.00;99.90;;;;;;5075439;28;20282;-42
2022/01/14 11:19:35;;;;;;;;;;;6.30;99.90;;;;;;5075742;28;20400;-41
2022/01/14 11:25:05;;;;;;;;;;;6.60;99.90;;;;;;5013869;28;19913;-41
2022/01/14 11:27:31;;;;;;;;;;;6.90;99.90;;;;;;5013685;28;19964;-41
2022/01/14 11:29:58;;;;;;;;;;;6.70;99.90;;;;;;5042284;28;19916;-42
2022/01/14 11:32:25;;;;;;;;;;;6.90;99.90;;;;;;5075427;28;19954;-43
2022/01/14 11:34:51;;;;;;;;;;;7.10;99.90;;;;;;5057656;28;19908;-41
2022/01/14 11:37:17;;;;;;;;;;;7.00;99.90;;;;;;5075561;28;19920;-41
2022/01/14 11:40:03;;;;;;;;;;;6.90;99.90;;;;;;5075410;28;20384;-42
2022/01/14 11:42:42;;;;;;;;;;;7.10;99.90;;;;;;5060477;28;19959;-45
2022/01/14 11:45:08;;;;;;;;;;;7.30;99.90;;;;;;5075156;28;19961;-42
2022/01/14 11:47:41;;;;;;;;;;;7.10;99.90;;;;;;5075343;28;19958;-42
2022/01/14 11:50:27;;;;;;;;;;;7.10;99.90;;;;;;5075087;28;19967;-42
2022/01/14 11:52:52;;;;;;;;;;;7.10;99.90;;;;;;5075054;28;19981;-42
2022/01/14 11:55:21;;;;;;;;;;;7.10;99.90;;;;;;5074826;28;19908;-41
2022/01/14 11:57:48;;;;;;;;;;;7.20;99.90;;;;;;5074979;28;19963;-42
2022/01/14 12:00:30;;;;;;;;;;;7.30;99.90;;;;;;5074939;28;19940;-42
2022/01/14 12:02:57;;;;;;;;;;;7.50;99.90;;;;;;5074285;28;20001;-41
2022/01/14 12:05:26;;;;;;;;;;;7.80;99.90;;;;;;5074954;28;19909;-42
2022/01/14 12:08:01;;;;;;;;;;;7.70;99.90;;;;;;5074890;28;19912;-42
2022/01/14 12:10:27;;;;;;;;;;;7.70;99.90;;;;;;5074637;28;19912;-42
2022/01/14 12:13:13;;;;;;;;;;;7.40;99.90;;;;;;5074954;28;19916;-42
2022/01/14 12:15:56;;;;;;;;;;;7.40;99.90;;;;;;5073969;28;19969;-42
2022/01/14 12:18:40;;;;;;;;;;;7.60;99.90;;;;;;5074585;28;19991;-41
2022/01/14 12:21:05;;;;;;;;;;;7.80;99.90;;;;;;5074167;28;19952;-43
2022/01/14 12:23:31;;;;;;;;;;;8.10;99.90;;;;;;5073931;28;20231;-43
2022/01/14 12:26:12;;;;;;;;;;;7.90;99.90;;;;;;5072741;28;20210;-42
2022/01/14 12:28:37;;;;;;;;;;;8.00;99.90;;;;;;5073847;28;19963;-42
2022/01/14 12:31:03;;;;;;;;;;;8.20;99.90;;;;;;5073899;28;20371;-42
2022/01/14 12:33:41;;;;;;;;;;;8.20;99.90;;;;;;5074070;28;20020;-42
2022/01/14 12:36:11;;;;;;;;;;;8.30;99.90;;;;;;5073384;28;19908;-42
2022/01/14 12:38:38;;;;;;;;;;;8.30;99.90;;;;;;5073622;28;20000;-43
2022/01/14 12:41:04;;;;;;;;;;;8.40;99.90;;;;;;5073816;28;19909;-42
2022/01/14 12:43:30;;;;;;;;;;;8.40;99.90;;;;;;5073801;28;20011;-43
2022/01/14 12:46:24;;;;;;;;;;;8.30;99.90;;;;;;5073908;28;19916;-41
2022/01/14 12:48:56;;;;;;;;;;;8.40;99.90;;;;;;5073246;28;20003;-41
2022/01/14 12:51:22;;;;;;;;;;;8.50;99.90;;;;;;5073441;28;19920;-42
2022/01/14 12:53:57;;;;;;;;;;;8.50;99.90;;;;;;5073451;28;19909;-43
2022/01/14 12:56:24;;;;;;;;;;;8.40;99.90;;;;;;5073182;28;20401;-42
2022/01/14 12:59:16;;;;;;;;;;;8.40;99.90;;;;;;5073594;28;19909;-42
2022/01/14 13:01:49;;;;;;;;;;;8.50;99.90;;;;;;5069283;28;20347;-42
2022/01/14 13:04:15;;;;;;;;;;;8.70;99.90;;;;;;5073771;28;19965;-41
2022/01/14 13:06:42;;;;;;;;;;;8.80;99.90;;;;;;5073305;28;19912;-44
2022/01/14 13:09:08;;;;;;;;;;;8.60;99.90;;;;;;5073356;28;19999;-41
2022/01/14 13:11:49;;;;;;;;;;;8.80;99.90;;;;;;5073596;28;19951;-42
2022/01/14 13:14:19;;;;;;;;;;;8.90;99.90;;;;;;5073081;28;20390;-43
2022/01/14 13:16:52;;;;;;;;;;;8.90;99.90;;;;;;5073087;28;19912;-43
2022/01/14 13:19:25;;;;;;;;;;;8.80;99.90;;;;;;5072639;28;19908;-45
2022/01/14 13:21:50;;;;;;;;;;;8.80;99.90;;;;;;5073108;28;19909;-43
2022/01/14 13:24:22;;;;;;;;;;;8.90;99.90;;;;;;5055229;28;19920;-44
2022/01/14 13:27:04;;;;;;;;;;;9.00;99.90;;;;;;5072969;28;19920;-43
2022/01/14 13:29:50;;;;;;;;;;;9.00;99.90;;;;;;5073233;28;19919;-42
2022/01/14 13:32:21;;;;;;;;;;;9.00;99.90;;;;;;5058904;28;20248;-44
2022/01/14 13:34:47;;;;;;;;;;;9.00;99.90;;;;;;5073386;28;19951;-43
2022/01/14 13:37:15;;;;;;;;;;;9.10;99.90;;;;;;5073515;28;19908;-44
2022/01/14 13:39:40;;;;;;;;;;;9.10;99.90;;;;;;5072910;28;19916;-44
2022/01/14 13:42:19;;;;;;;;;;;9.10;99.90;;;;;;5073146;28;20219;-45
2022/01/14 13:44:46;;;;;;;;;;;9.10;99.90;;;;;;5073272;28;19966;-42
2022/01/14 13:47:18;;;;;;;;;;;9.30;99.90;;;;;;5072890;28;20287;-42
2022/01/14 13:49:44;;;;;;;;;;;9.20;99.90;;;;;;5055374;28;20035;-44
2022/01/14 13:52:12;;;;;;;;;;;9.20;99.90;;;;;;5072876;28;20285;-43
2022/01/14 13:54:39;;;;;;;;;;;9.20;99.90;;;;;;5073136;28;19990;-43
2022/01/14 13:57:08;;;;;;;;;;;9.30;99.90;;;;;;5073061;28;20309;-43
2022/01/14 13:59:34;;;;;;;;;;;9.30;99.90;;;;;;5073152;28;19969;-42
2022/01/14 14:02:00;;;;;;;;;;;9.20;99.90;;;;;;5073000;28;19912;-42
2022/01/14 14:04:28;;;;;;;;;;;9.20;99.90;;;;;;5072835;28;19994;-43
2022/01/14 14:07:09;;;;;;;;;;;9.10;99.90;;;;;;5073273;28;19912;-43
2022/01/14 14:12:37;;;;;;;;;;;9.20;99.90;;;;;;5072873;28;19908;-42
2022/01/14 14:18:04;;;;;;;;;;;9.10;99.90;;;;;;5072450;28;20246;-46
2022/01/14 14:20:30;;;;;;;;;;;9.20;99.90;;;;;;5072959;28;20274;-44
2022/01/14 14:22:55;;;;;;;;;;;9.10;99.90;;;;;;5072394;28;19932;-44
2022/01/14 14:25:27;;;;;;;;;;;9.20;99.90;;;;;;5073076;28;19920;-41
2022/01/14 14:27:52;;;;;;;;;;;9.20;99.90;;;;;;5072714;28;19962;-42
2022/01/14 14:30:18;;;;;;;;;;;9.20;99.90;;;;;;5072800;28;20002;-42
2022/01/14 14:32:45;;;;;;;;;;;9.20;99.90;;;;;;5075466;28;20339;-42
2022/01/14 14:35:13;;;;;;;;;;;9.10;99.90;;;;;;5076104;28;19915;-43
2022/01/14 14:37:40;;;;;;;;;;;8.90;99.90;;;;;;5076741;28;19962;-41
2022/01/14 14:40:07;;;;;;;;;;;8.80;99.90;;;;;;5076747;28;19912;-42
2022/01/14 14:42:33;;;;;;;;;;;8.80;99.90;;;;;;5076416;28;20070;-42
2022/01/14 14:44:58;;;;;;;;;;;8.80;99.90;;;;;;5076076;28;19952;-42
2022/01/14 14:47:24;;;;;;;;;;;8.60;99.90;;;;;;5076072;28;19916;-42
2022/01/14 14:49:49;;;;;;;;;;;8.70;99.90;;;;;;5075924;28;19989;-44
2022/01/14 14:52:15;;;;;;;;;;;8.70;99.90;;;;;;5058468;28;20003;-44
2022/01/14 14:54:41;;;;;;;;;;;8.90;99.90;;;;;;5076192;28;19916;-43